sensor_id;sensor_type;location;lat;lon;timestamp;P1;durP1;ratioP1;P2;durP2;ratioP2
7883;SDS011;3987;51.458;7.238;2023-10-13T00:06:57;17.50;;;14.73;;
7883;SDS011;3987;51.458;7.238;2023-10-13T00:21:58;17.37;;;14.57;;
7883;SDS011;3987;51.458;7.238;2023-10-13T00:37:08;14.63;;;12.10;;
7883;SDS011;3987;51.458;7.238;2023-10-13T00:52:18;13.40;;;11.90;;
7883;SDS011;3987;51.458;7.238;2023-10-13T01:07:19;14.67;;;12.37;;
7883;SDS011;3987;51.458;7.238;2023-10-13T01:22:22;13.00;;;11.83;;
7883;SDS011;3987;51.458;7.238;2023-10-13T01:37:23;17.48;;;10.80;;
7883;SDS011;3987;51.458;7.238;2023-10-13T01:52:24;18.33;;;12.13;;
7883;SDS011;3987;51.458;7.238;2023-10-13T02:07:26;11.85;;;10.90;;
7883;SDS011;3987;51.458;7.238;2023-10-13T02:22:29;13.50;;;12.13;;
7883;SDS011;3987;51.458;7.238;2023-10-13T02:37:32;13.80;;;10.87;;
7883;SDS011;3987;51.458;7.238;2023-10-13T02:52:32;12.80;;;11.50;;
7883;SDS011;3987;51.458;7.238;2023-10-13T03:07:38;12.10;;;11.00;;
7883;SDS011;3987;51.458;7.238;2023-10-13T03:22:42;12.07;;;10.50;;
7883;SDS011;3987;51.458;7.238;2023-10-13T03:37:46;13.50;;;12.30;;
7883;SDS011;3987;51.458;7.238;2023-10-13T03:52:48;14.07;;;12.60;;
7883;SDS011;3987;51.458;7.238;2023-10-13T04:07:49;13.77;;;12.33;;
7883;SDS011;3987;51.458;7.238;2023-10-13T04:23:15;13.97;;;12.70;;
7883;SDS011;3987;51.458;7.238;2023-10-13T04:38:19;13.70;;;12.03;;
7883;SDS011;3987;51.458;7.238;2023-10-13T04:53:20;13.37;;;12.03;;
7883;SDS011;3987;51.458;7.238;2023-10-13T05:08:55;14.47;;;12.00;;
7883;SDS011;3987;51.458;7.238;2023-10-13T05:24:14;12.70;;;11.53;;
7883;SDS011;3987;51.458;7.238;2023-10-13T05:39:33;14.90;;;12.60;;
7883;SDS011;3987;51.458;7.238;2023-10-13T05:54:52;18.07;;;11.87;;
7883;SDS011;3987;51.458;7.238;2023-10-13T06:10:28;10.77;;;9.73;;
7883;SDS011;3987;51.458;7.238;2023-10-13T06:25:50;12.77;;;10.00;;
7883;SDS011;3987;51.458;7.238;2023-10-13T06:41:10;10.23;;;9.30;;
7883;SDS011;3987;51.458;7.238;2023-10-13T06:56:19;12.17;;;10.70;;
7883;SDS011;3987;51.458;7.238;2023-10-13T07:11:27;13.83;;;10.20;;
7883;SDS011;3987;51.458;7.238;2023-10-13T07:26:34;14.00;;;10.10;;
7883;SDS011;3987;51.458;7.238;2023-10-13T07:41:36;11.27;;;9.13;;
7883;SDS011;3987;51.458;7.238;2023-10-13T07:56:36;9.47;;;8.33;;
7883;SDS011;3987;51.458;7.238;2023-10-13T08:11:39;12.87;;;8.20;;
7883;SDS011;3987;51.458;7.238;2023-10-13T08:26:39;11.07;;;7.30;;
7883;SDS011;3987;51.458;7.238;2023-10-13T08:42:18;15.00;;;7.40;;
7883;SDS011;3987;51.458;7.238;2023-10-13T08:57:24;11.70;;;6.33;;
7883;SDS011;3987;51.458;7.238;2023-10-13T09:12:34;6.40;;;5.83;;
7883;SDS011;3987;51.458;7.238;2023-10-13T09:27:34;15.07;;;6.43;;
7883;SDS011;3987;51.458;7.238;2023-10-13T09:42:37;10.77;;;5.30;;
7883;SDS011;3987;51.458;7.238;2023-10-13T09:57:43;12.50;;;5.13;;
7883;SDS011;3987;51.458;7.238;2023-10-13T10:27:59;8.47;;;6.40;;
7883;SDS011;3987;51.458;7.238;2023-10-13T10:43:00;12.43;;;5.90;;
7883;SDS011;3987;51.458;7.238;2023-10-13T10:58:08;11.10;;;6.47;;
7883;SDS011;3987;51.458;7.238;2023-10-13T11:13:38;8.30;;;6.63;;
7883;SDS011;3987;51.458;7.238;2023-10-13T11:28:50;13.37;;;7.87;;
7883;SDS011;3987;51.458;7.238;2023-10-13T11:43:51;9.17;;;6.97;;
7883;SDS011;3987;51.458;7.238;2023-10-13T11:58:53;9.90;;;7.33;;
7883;SDS011;3987;51.458;7.238;2023-10-13T12:13:53;16.97;;;6.77;;
7883;SDS011;3987;51.458;7.238;2023-10-13T12:28:54;11.17;;;6.63;;
7883;SDS011;3987;51.458;7.238;2023-10-13T12:44:06;15.37;;;6.90;;
7883;SDS011;3987;51.458;7.238;2023-10-13T12:59:25;8.10;;;5.70;;
7883;SDS011;3987;51.458;7.238;2023-10-13T13:14:26;10.67;;;6.57;;
7883;SDS011;3987;51.458;7.238;2023-10-13T13:29:30;13.53;;;6.03;;
7883;SDS011;3987;51.458;7.238;2023-10-13T13:44:30;12.23;;;5.57;;
7883;SDS011;3987;51.458;7.238;2023-10-13T13:59:35;14.63;;;6.03;;
7883;SDS011;3987;51.458;7.238;2023-10-13T14:14:36;12.33;;;5.97;;
7883;SDS011;3987;51.458;7.238;2023-10-13T14:29:39;16.37;;;5.47;;
7883;SDS011;3987;51.458;7.238;2023-10-13T14:44:45;10.17;;;5.70;;
7883;SDS011;3987;51.458;7.238;2023-10-13T14:59:56;8.57;;;5.50;;
7883;SDS011;3987;51.458;7.238;2023-10-13T15:14:57;13.77;;;5.10;;
7883;SDS011;3987;51.458;7.238;2023-10-13T15:29:59;10.73;;;5.40;;
7883;SDS011;3987;51.458;7.238;2023-10-13T15:44:59;16.63;;;6.00;;
7883;SDS011;3987;51.458;7.238;2023-10-13T16:00:10;12.87;;;5.57;;
7883;SDS011;3987;51.458;7.238;2023-10-13T16:15:23;11.17;;;5.47;;
7883;SDS011;3987;51.458;7.238;2023-10-13T16:30:23;14.60;;;6.07;;
7883;SDS011;3987;51.458;7.238;2023-10-13T16:45:24;8.83;;;5.17;;
7883;SDS011;3987;51.458;7.238;2023-10-13T17:00:25;10.80;;;6.17;;
7883;SDS011;3987;51.458;7.238;2023-10-13T17:15:29;10.97;;;5.27;;
7883;SDS011;3987;51.458;7.238;2023-10-13T17:30:33;8.53;;;5.23;;
7883;SDS011;3987;51.458;7.238;2023-10-13T17:45:36;9.57;;;5.60;;
7883;SDS011;3987;51.458;7.238;2023-10-13T18:00:36;11.60;;;5.50;;
7883;SDS011;3987;51.458;7.238;2023-10-13T18:15:37;12.10;;;5.57;;
7883;SDS011;3987;51.458;7.238;2023-10-13T18:30:38;9.67;;;5.00;;
7883;SDS011;3987;51.458;7.238;2023-10-13T18:45:38;6.77;;;5.10;;
7883;SDS011;3987;51.458;7.238;2023-10-13T19:00:40;9.00;;;5.33;;
7883;SDS011;3987;51.458;7.238;2023-10-13T19:15:41;13.37;;;6.57;;
7883;SDS011;3987;51.458;7.238;2023-10-13T19:30:41;10.37;;;6.87;;
7883;SDS011;3987;51.458;7.238;2023-10-13T19:45:44;10.90;;;5.83;;
7883;SDS011;3987;51.458;7.238;2023-10-13T20:00:46;8.70;;;6.67;;
7883;SDS011;3987;51.458;7.238;2023-10-13T20:15:46;10.83;;;7.27;;
7883;SDS011;3987;51.458;7.238;2023-10-13T20:30:48;13.67;;;9.03;;
7883;SDS011;3987;51.458;7.238;2023-10-13T20:45:49;12.95;;;10.32;;
7883;SDS011;3987;51.458;7.238;2023-10-13T21:00:49;16.23;;;11.10;;
7883;SDS011;3987;51.458;7.238;2023-10-13T21:15:54;17.83;;;9.27;;
7883;SDS011;3987;51.458;7.238;2023-10-13T21:31:05;14.33;;;8.37;;
7883;SDS011;3987;51.458;7.238;2023-10-13T21:46:12;17.60;;;8.43;;
7883;SDS011;3987;51.458;7.238;2023-10-13T22:01:17;13.33;;;8.47;;
7883;SDS011;3987;51.458;7.238;2023-10-13T22:16:20;13.13;;;7.97;;
7883;SDS011;3987;51.458;7.238;2023-10-13T22:31:21;15.37;;;8.93;;
7883;SDS011;3987;51.458;7.238;2023-10-13T22:46:24;18.13;;;8.27;;
7883;SDS011;3987;51.458;7.238;2023-10-13T23:01:25;12.40;;;8.63;;
7883;SDS011;3987;51.458;7.238;2023-10-13T23:16:26;11.43;;;8.80;;
7883;SDS011;3987;51.458;7.238;2023-10-13T23:31:27;11.27;;;8.23;;
7883;SDS011;3987;51.458;7.238;2023-10-13T23:46:29;10.43;;;8.93;;
